Terminal Aerodrome Forecast
Issued by NWS Medford, OR

Home | Current Version | Previous Version | Text Only | Print | Product List | Glossary On
Versions: 1 2 3 4 5 6 7 8 9 10 11 12 13
137
FTUS46 KMFR 121141
TAFMFR
TAF
KMFR 121141Z 1212/1312 VRB03KT P6SM SCT050 BKN080
     FM122000 34003KT P6SM -SHRA SCT025 OVC040
     FM130200 34005KT P6SM SCT020 BKN035=

USA.gov is the U.S. government's official web portal to all federal, state and local government web resources and services.